Portada
METAR-TAF:

METAR-TAF

Aeropuertos :

Aeropuerto Internacional Juan Manuel Gálvez

Roatán, Honduras

latitud: 16-19N, longitud: 086-31W, altitud: 5 m

Observación

El informe se hizo hace 3 horas y 54 minutos, a las 06:00 UTC
Viento 16 kt del este
Temperatura 29°C
Humedad 84%
Presión 1008 hPa
Visibilidad: 7000 m
Nubes dispersas a una altura de 3000 ft

METAR: MHRO 180600Z 08016KT 7000 SCT030 29/26 Q1008 A2977 NOSIG

Hora: 03:54 (09:54 UTC)

Pronóstico

El informe se hizo hace 4 horas y 54 minutos, a las 05:00 UTC
Pronóstico válido del 18 a las 06 UTC al 19 a las 06 UTC
Viento 22 kt del este
Visibilidad: 4000 m
Escasas nubes a una altura de 2500 ft
humo,

TAF: MHRO 180500Z 1806/1906 09022KT 4000 FU FEW025 TX32/1819Z TN29/1812Z

Observaciones y pronósticos meteorológicos de más de 4000 aeropuertos (mensajes METAR y TAF).

Los puntos amarillos y rojos representan las estaciones disponibles.

Ponga el ratón en el punto deseado para ver el nombre de la estación.

Haga clic para ver las observaciones y los pronósticos meteorológicos.

Para cambiar el mapa : haga clic en los botones verdes con una cruz de color negro para hacer un zoom, en el botón verde con un guión para alejar o en las flechas verdes para mapas adyacentes.


METAR-TAF: